createdAt,value
2022-10-31T00:00:50.915Z,3.83
2022-10-31T00:03:19.454Z,4.30
2022-10-31T00:05:50.652Z,3.80
2022-10-31T00:08:19.593Z,4.38
2022-10-31T00:10:48.921Z,4.55
2022-10-31T00:13:17.382Z,3.80
2022-10-31T00:15:45.267Z,4.00
2022-10-31T00:18:13.687Z,4.22
2022-10-31T00:20:41.657Z,4.38
2022-10-31T00:23:10.301Z,4.93
2022-10-31T00:25:40.853Z,4.68
2022-10-31T00:28:13.773Z,4.25
2022-10-31T00:30:41.721Z,4.43
2022-10-31T00:33:09.466Z,4.30
2022-10-31T00:35:37.251Z,4.07
2022-10-31T00:38:07.353Z,4.32
2022-10-31T00:40:38.403Z,4.07
2022-10-31T00:43:07.360Z,4.10
2022-10-31T00:45:40.333Z,4.28
2022-10-31T00:48:09.330Z,4.22
2022-10-31T00:50:46.956Z,4.45
2022-10-31T00:53:15.676Z,4.60
2022-10-31T00:55:44.836Z,4.47
2022-10-31T01:00:43.137Z,4.45
2022-10-31T01:03:12.789Z,4.25
2022-10-31T01:05:40.779Z,4.43
2022-10-31T01:08:09.064Z,4.38
2022-10-31T01:10:37.089Z,4.90
2022-10-31T01:13:04.866Z,4.30
2022-10-31T01:15:32.759Z,4.50
2022-10-31T01:18:02.689Z,4.35
2022-10-31T01:20:30.761Z,4.25
2022-10-31T01:22:59.382Z,4.75
2022-10-31T01:25:27.083Z,4.50
2022-10-31T01:27:55.168Z,4.28
2022-10-31T01:30:22.997Z,4.60
2022-10-31T01:32:51.848Z,4.70
2022-10-31T01:35:24.399Z,4.53
2022-10-31T01:37:52.280Z,4.85
2022-10-31T01:40:20.200Z,4.70
2022-10-31T01:42:48.169Z,4.63
2022-10-31T01:45:42.154Z,4.60
2022-10-31T01:48:15.862Z,4.50
2022-10-31T01:50:48.340Z,5.07
2022-10-31T01:53:19.869Z,4.93
2022-10-31T01:55:49.895Z,4.78
2022-10-31T01:58:24.174Z,4.50
2022-10-31T02:00:55.933Z,4.47
2022-10-31T02:03:24.706Z,4.53
2022-10-31T02:05:56.924Z,4.50
2022-10-31T02:08:29.098Z,4.40
2022-10-31T02:10:59.059Z,4.85
2022-10-31T02:13:28.242Z,4.50
2022-10-31T02:15:57.935Z,4.20
2022-10-31T02:18:29.196Z,4.50
2022-10-31T02:21:09.361Z,4.43
2022-10-31T02:24:11.804Z,4.20
2022-10-31T02:26:51.494Z,4.68
2022-10-31T02:29:38.240Z,4.53
2022-10-31T02:32:14.721Z,4.47
2022-10-31T02:34:50.519Z,4.80
2022-10-31T02:37:28.117Z,4.30
2022-10-31T02:40:03.049Z,4.60
2022-10-31T02:42:37.688Z,4.25
2022-10-31T02:45:12.437Z,4.15
2022-10-31T02:47:45.768Z,4.30
2022-10-31T02:50:21.059Z,4.40
2022-10-31T02:52:52.819Z,4.13
2022-10-31T02:55:46.658Z,4.07
2022-10-31T03:01:12.904Z,3.90
2022-10-31T03:03:55.416Z,4.40
2022-10-31T03:06:33.180Z,4.10
2022-10-31T03:09:07.702Z,4.10
2022-10-31T03:11:45.623Z,4.30
2022-10-31T03:14:19.096Z,4.32
2022-10-31T03:16:49.636Z,4.50
2022-10-31T03:19:22.419Z,4.10
2022-10-31T03:21:55.827Z,4.40
2022-10-31T03:24:27.171Z,4.40
2022-10-31T03:26:59.820Z,4.43
2022-10-31T03:29:31.500Z,4.57
2022-10-31T03:32:02.898Z,4.72
2022-10-31T03:34:33.945Z,4.80
2022-10-31T03:37:05.771Z,4.60
2022-10-31T03:39:35.213Z,4.50
2022-10-31T03:42:11.652Z,4.90
2022-10-31T03:44:43.444Z,4.72
2022-10-31T03:47:11.581Z,4.93
2022-10-31T03:49:41.111Z,5.07
2022-10-31T03:52:18.798Z,5.28
2022-10-31T03:54:48.680Z,5.50
2022-10-31T03:57:22.323Z,5.63
2022-10-31T03:59:58.398Z,5.38
2022-10-31T04:02:32.261Z,5.57
2022-10-31T04:05:02.620Z,5.60
2022-10-31T04:07:35.556Z,5.20
2022-10-31T04:10:08.026Z,5.60
2022-10-31T04:12:37.495Z,5.45
2022-10-31T04:15:08.729Z,5.70
2022-10-31T04:17:42.406Z,5.88
2022-10-31T04:20:12.820Z,5.75
2022-10-31T04:22:42.512Z,5.87
2022-10-31T04:25:15.764Z,6.05
2022-10-31T04:27:44.518Z,6.10
2022-10-31T04:30:14.065Z,6.30
2022-10-31T04:32:41.950Z,6.18
2022-10-31T04:35:11.323Z,6.18
2022-10-31T04:37:39.165Z,6.47
2022-10-31T04:40:07.831Z,6.45
2022-10-31T04:42:35.570Z,6.00
2022-10-31T04:45:03.425Z,5.60
2022-10-31T04:47:33.333Z,5.53
2022-10-31T04:50:02.180Z,5.93
2022-10-31T04:52:31.407Z,5.57
2022-10-31T04:54:59.343Z,5.43
2022-10-31T04:57:27.639Z,5.90
2022-10-31T04:59:55.434Z,6.30
2022-10-31T05:02:23.293Z,5.93
2022-10-31T05:04:51.109Z,6.57
2022-10-31T05:07:19.263Z,6.30
2022-10-31T05:09:48.348Z,6.40
2022-10-31T05:12:16.260Z,6.25
2022-10-31T05:14:46.173Z,6.57
2022-10-31T05:17:16.531Z,6.80
2022-10-31T05:19:44.226Z,6.32
2022-10-31T05:22:12.169Z,6.83
2022-10-31T05:24:40.156Z,7.28
2022-10-31T05:27:09.236Z,7.25
2022-10-31T05:29:37.238Z,7.03
2022-10-31T05:32:09.196Z,6.72
2022-10-31T05:34:37.025Z,7.07
2022-10-31T05:37:05.283Z,6.70
2022-10-31T05:39:33.366Z,6.50
2022-10-31T05:42:01.231Z,6.80
2022-10-31T05:44:30.512Z,6.90
2022-10-31T05:46:58.449Z,6.57
2022-10-31T05:49:26.349Z,6.50
2022-10-31T05:51:54.261Z,6.88
2022-10-31T05:54:22.605Z,6.85
2022-10-31T05:56:50.379Z,6.57
2022-10-31T05:59:18.234Z,6.57
2022-10-31T06:01:47.655Z,6.60
2022-10-31T06:04:15.408Z,6.15
2022-10-31T06:06:43.183Z,6.17
2022-10-31T06:09:10.890Z,6.28
2022-10-31T06:11:38.735Z,6.30
2022-10-31T06:14:06.713Z,5.93
2022-10-31T06:16:34.975Z,6.28
2022-10-31T06:19:04.630Z,6.35
2022-10-31T06:21:32.364Z,5.90
2022-10-31T06:24:00.511Z,6.57
2022-10-31T06:26:28.322Z,6.30
2022-10-31T06:28:59.872Z,6.43
2022-10-31T06:31:30.635Z,6.43
2022-10-31T06:33:58.993Z,6.37
2022-10-31T06:36:31.130Z,6.28
2022-10-31T06:38:59.068Z,6.28
2022-10-31T06:41:28.165Z,6.75
2022-10-31T06:43:56.007Z,7.32
2022-10-31T06:46:26.501Z,7.10
2022-10-31T06:48:56.161Z,7.18
2022-10-31T06:51:24.546Z,6.65
2022-10-31T06:53:53.915Z,6.40
2022-10-31T06:56:21.843Z,6.72
2022-10-31T06:58:52.901Z,6.50
2022-10-31T07:01:21.036Z,6.10
2022-10-31T07:03:49.129Z,6.55
2022-10-31T07:06:17.096Z,6.03
2022-10-31T07:08:45.056Z,5.73
2022-10-31T07:11:14.307Z,5.80
2022-10-31T07:13:42.332Z,5.80
2022-10-31T07:16:13.132Z,5.50
2022-10-31T07:18:41.638Z,6.15
2022-10-31T07:21:09.772Z,6.45
2022-10-31T07:23:37.814Z,6.22
2022-10-31T07:26:05.966Z,6.30
2022-10-31T07:28:35.679Z,5.82
2022-10-31T07:31:04.329Z,6.00
2022-10-31T07:33:32.460Z,6.10
2022-10-31T07:36:00.249Z,6.38
2022-10-31T07:38:28.221Z,6.30
2022-10-31T07:40:56.173Z,7.03
2022-10-31T07:43:24.006Z,7.10
2022-10-31T07:45:54.006Z,6.47
2022-10-31T07:48:22.274Z,6.22
2022-10-31T07:50:50.017Z,5.90
2022-10-31T07:53:17.929Z,6.60
2022-10-31T07:55:46.059Z,7.10
2022-10-31T07:58:15.731Z,7.15
2022-10-31T08:00:45.584Z,6.50
2022-10-31T08:03:16.423Z,6.32
2022-10-31T08:05:46.806Z,6.45
2022-10-31T08:08:15.864Z,6.35
2022-10-31T08:10:44.186Z,6.03
2022-10-31T08:13:14.320Z,6.15
2022-10-31T08:15:42.972Z,6.10
2022-10-31T08:18:16.064Z,6.18
2022-10-31T08:20:54.537Z,6.43
2022-10-31T08:23:33.209Z,7.15
2022-10-31T08:26:01.311Z,6.47
2022-10-31T08:28:29.080Z,6.60
2022-10-31T08:30:56.940Z,6.60
2022-10-31T08:33:26.359Z,6.63
2022-10-31T08:35:54.390Z,7.85
2022-10-31T08:38:22.669Z,7.70
2022-10-31T08:40:51.387Z,7.40
2022-10-31T08:43:20.179Z,7.45
2022-10-31T08:45:51.143Z,7.10
2022-10-31T08:48:19.937Z,8.10
2022-10-31T08:50:49.624Z,8.55
2022-10-31T08:53:19.248Z,9.15
2022-10-31T08:55:48.548Z,9.43
2022-10-31T08:58:17.864Z,8.90
2022-10-31T09:00:46.503Z,8.73
2022-10-31T09:03:16.020Z,8.70
2022-10-31T09:05:45.173Z,9.27
2022-10-31T09:08:16.945Z,9.05
2022-10-31T09:10:45.807Z,9.52
2022-10-31T09:13:16.210Z,9.57
2022-10-31T09:15:46.456Z,9.15
2022-10-31T09:18:15.376Z,8.88
2022-10-31T09:20:44.871Z,9.35
2022-10-31T09:23:17.279Z,8.73
2022-10-31T09:25:50.449Z,8.97
2022-10-31T09:28:21.921Z,9.30
2022-10-31T09:30:51.668Z,8.80
2022-10-31T09:33:20.429Z,8.63
2022-10-31T09:35:48.710Z,8.90
2022-10-31T09:38:20.255Z,8.35
2022-10-31T09:40:51.199Z,8.40
2022-10-31T09:43:27.721Z,8.35
2022-10-31T09:46:06.610Z,7.82
2022-10-31T09:48:44.461Z,8.32
2022-10-31T09:51:15.716Z,7.78
2022-10-31T09:53:50.179Z,8.18
2022-10-31T09:56:20.605Z,7.97
2022-10-31T09:58:54.932Z,7.72
2022-10-31T10:01:46.240Z,7.50
2022-10-31T10:04:40.380Z,7.70
2022-10-31T10:07:18.820Z,7.72
2022-10-31T10:09:48.666Z,7.85
2022-10-31T10:12:24.858Z,7.55
2022-10-31T10:15:11.055Z,7.93
2022-10-31T10:17:47.488Z,7.47
2022-10-31T10:20:24.321Z,8.35
2022-10-31T10:23:04.022Z,7.82
2022-10-31T10:25:41.007Z,7.80
2022-10-31T10:28:22.221Z,7.70
2022-10-31T10:30:55.686Z,8.15
2022-10-31T10:33:31.505Z,7.72
2022-10-31T10:36:02.409Z,7.97
2022-10-31T10:38:38.093Z,8.07
2022-10-31T10:41:12.149Z,7.93
2022-10-31T10:43:40.126Z,7.45
2022-10-31T10:46:41.630Z,8.20
2022-10-31T10:49:18.705Z,7.75
2022-10-31T10:52:02.195Z,8.27
2022-10-31T10:54:58.232Z,8.48
2022-10-31T10:58:02.744Z,7.93
2022-10-31T11:00:36.842Z,8.10
2022-10-31T11:03:06.058Z,8.25
2022-10-31T11:05:39.307Z,9.18
2022-10-31T11:08:08.893Z,8.15
2022-10-31T11:10:37.400Z,8.30
2022-10-31T11:13:22.647Z,7.90
2022-10-31T11:15:58.450Z,8.00
2022-10-31T11:18:32.243Z,8.70
2022-10-31T11:21:03.733Z,8.05
2022-10-31T11:23:32.153Z,8.10
2022-10-31T11:26:02.188Z,7.80
2022-10-31T11:28:33.284Z,8.30
2022-10-31T11:31:03.338Z,8.52
2022-10-31T11:33:34.728Z,7.85
2022-10-31T11:36:04.465Z,8.00
2022-10-31T11:38:37.445Z,7.83
2022-10-31T11:41:14.441Z,8.80
2022-10-31T11:43:52.413Z,8.57
2022-10-31T11:46:30.215Z,8.13
2022-10-31T11:48:58.525Z,8.70
2022-10-31T11:51:29.054Z,8.38
2022-10-31T11:54:02.666Z,8.75
2022-10-31T11:56:41.116Z,8.07
2022-10-31T11:59:20.874Z,8.07
2022-10-31T12:01:51.048Z,8.20
2022-10-31T12:04:18.893Z,7.53
2022-10-31T12:06:48.211Z,8.50
2022-10-31T12:09:22.427Z,8.10
2022-10-31T12:12:15.071Z,7.65
2022-10-31T12:14:55.420Z,7.53
2022-10-31T12:17:29.262Z,7.85
2022-10-31T12:20:06.242Z,7.03
2022-10-31T12:22:43.591Z,7.40
2022-10-31T12:25:27.130Z,8.27
2022-10-31T12:28:22.965Z,7.50
2022-10-31T12:31:05.338Z,7.40
2022-10-31T12:33:45.526Z,7.50
2022-10-31T12:36:28.339Z,8.15
2022-10-31T12:39:08.619Z,7.10
2022-10-31T12:41:47.684Z,7.05
2022-10-31T12:44:42.716Z,7.15
2022-10-31T12:47:37.330Z,7.50
2022-10-31T12:50:21.141Z,7.20
2022-10-31T12:53:01.816Z,7.50
2022-10-31T12:55:43.536Z,7.40
2022-10-31T12:58:16.354Z,7.63
2022-10-31T13:00:48.535Z,8.52
2022-10-31T13:03:28.634Z,7.60
2022-10-31T13:06:00.809Z,7.63
2022-10-31T13:08:33.193Z,8.20
2022-10-31T13:11:08.849Z,7.72
2022-10-31T13:13:40.150Z,7.35
2022-10-31T13:16:14.689Z,7.88
2022-10-31T13:18:48.816Z,7.97
2022-10-31T13:21:23.107Z,7.47
2022-10-31T13:23:52.904Z,7.43
2022-10-31T13:26:37.607Z,7.70
2022-10-31T13:29:13.618Z,7.50
2022-10-31T13:31:42.480Z,6.80
2022-10-31T13:34:22.271Z,6.95
2022-10-31T13:36:58.109Z,7.15
2022-10-31T13:39:35.247Z,7.30
2022-10-31T13:42:11.205Z,7.10
2022-10-31T13:44:39.418Z,6.50
2022-10-31T13:47:28.855Z,6.05
2022-10-31T13:50:20.572Z,6.10
2022-10-31T13:52:48.239Z,6.33
2022-10-31T13:55:37.113Z,5.90
2022-10-31T13:58:06.529Z,6.28
2022-10-31T14:00:36.024Z,6.37
2022-10-31T14:03:03.912Z,5.65
2022-10-31T14:05:35.340Z,5.75
2022-10-31T14:08:06.112Z,5.90
2022-10-31T14:10:37.308Z,5.78
2022-10-31T14:13:07.701Z,5.80
2022-10-31T14:15:37.162Z,5.50
2022-10-31T14:18:07.369Z,5.25
2022-10-31T14:20:41.466Z,5.25
2022-10-31T14:23:15.046Z,5.43
2022-10-31T14:25:42.721Z,5.50
2022-10-31T14:28:33.135Z,5.30
2022-10-31T14:31:01.930Z,5.10
2022-10-31T14:33:31.691Z,4.95
2022-10-31T14:36:05.319Z,5.50
2022-10-31T14:38:49.325Z,5.60
2022-10-31T14:41:53.098Z,5.20
2022-10-31T14:44:53.368Z,5.38
2022-10-31T14:47:31.909Z,4.95
2022-10-31T14:50:20.521Z,5.40
2022-10-31T14:52:52.318Z,5.35
2022-10-31T14:55:21.489Z,5.70
2022-10-31T14:57:54.585Z,5.53
2022-10-31T15:00:24.771Z,6.18
2022-10-31T15:03:05.000Z,5.78
2022-10-31T15:05:34.945Z,5.93
2022-10-31T15:08:04.013Z,6.00
2022-10-31T15:10:36.111Z,6.57
2022-10-31T15:13:19.626Z,6.65
2022-10-31T15:15:52.029Z,6.70
2022-10-31T15:18:23.084Z,7.00
2022-10-31T15:20:53.284Z,6.97
2022-10-31T15:23:26.650Z,7.03
2022-10-31T15:26:00.875Z,7.50
2022-10-31T15:28:29.478Z,7.35
2022-10-31T15:30:59.178Z,7.88
2022-10-31T15:33:33.659Z,7.30
2022-10-31T15:36:05.881Z,7.90
2022-10-31T15:38:34.980Z,8.13
2022-10-31T15:41:06.853Z,7.47
2022-10-31T15:43:37.759Z,7.87
2022-10-31T15:46:11.037Z,9.48
2022-10-31T15:48:39.358Z,10.70
2022-10-31T15:51:07.217Z,9.80
2022-10-31T15:53:43.995Z,8.52
2022-10-31T15:56:20.549Z,8.90
2022-10-31T15:58:50.331Z,7.72
2022-10-31T16:01:24.378Z,9.40
2022-10-31T16:04:07.186Z,10.20
2022-10-31T16:06:37.106Z,9.30
2022-10-31T16:09:23.259Z,8.70
2022-10-31T16:11:51.408Z,8.45
2022-10-31T16:14:25.782Z,7.88
2022-10-31T16:16:55.822Z,7.82
2022-10-31T16:19:26.320Z,8.68
2022-10-31T16:21:56.899Z,8.68
2022-10-31T16:24:30.220Z,10.90
2022-10-31T16:27:05.212Z,11.75
2022-10-31T16:29:36.668Z,10.82
2022-10-31T16:32:04.920Z,10.27
2022-10-31T16:34:32.925Z,10.17
2022-10-31T16:37:00.449Z,10.18
2022-10-31T16:39:29.335Z,11.82
2022-10-31T16:41:58.353Z,10.30
2022-10-31T16:44:28.391Z,8.60
2022-10-31T16:47:11.393Z,9.32
2022-10-31T16:49:39.034Z,9.30
2022-10-31T16:52:06.589Z,9.63
2022-10-31T16:54:36.112Z,10.82
2022-10-31T16:57:05.979Z,10.70
2022-10-31T16:59:34.619Z,10.13
2022-10-31T17:02:03.273Z,11.95
2022-10-31T17:04:30.992Z,11.73
2022-10-31T17:06:58.590Z,12.80
2022-10-31T17:09:26.302Z,10.50
2022-10-31T17:11:55.567Z,10.23
2022-10-31T17:14:23.377Z,9.98
2022-10-31T17:16:51.071Z,10.35
2022-10-31T17:19:18.704Z,10.43
2022-10-31T17:21:46.269Z,10.25
2022-10-31T17:24:15.465Z,10.70
2022-10-31T17:26:44.731Z,10.98
2022-10-31T17:29:13.736Z,10.80
2022-10-31T17:31:41.722Z,10.77
2022-10-31T17:34:10.091Z,10.70
2022-10-31T17:36:38.275Z,11.05
2022-10-31T17:39:09.599Z,10.50
2022-10-31T17:41:37.154Z,10.27
2022-10-31T17:44:04.994Z,10.73
2022-10-31T17:46:33.993Z,11.98
2022-10-31T17:49:01.706Z,11.52
2022-10-31T17:51:29.256Z,11.50
2022-10-31T17:53:56.793Z,10.48
2022-10-31T17:56:24.368Z,9.80
2022-10-31T17:58:51.983Z,9.77
2022-10-31T18:01:20.457Z,9.90
2022-10-31T18:03:49.476Z,10.20
2022-10-31T18:06:17.347Z,9.93
2022-10-31T18:08:45.144Z,9.95
2022-10-31T18:11:15.024Z,9.52
2022-10-31T18:13:42.913Z,9.52
2022-10-31T18:16:11.558Z,9.25
2022-10-31T18:18:39.544Z,8.95
2022-10-31T18:21:08.656Z,8.80
2022-10-31T18:23:36.291Z,8.80
2022-10-31T18:26:04.253Z,8.52
2022-10-31T18:28:31.852Z,9.02
2022-10-31T18:31:00.343Z,8.73
2022-10-31T18:33:28.549Z,9.20
2022-10-31T18:35:56.407Z,9.02
2022-10-31T18:38:25.708Z,9.45
2022-10-31T18:40:53.439Z,9.52
2022-10-31T18:43:21.015Z,9.13
2022-10-31T18:45:52.342Z,9.88
2022-10-31T18:48:22.755Z,9.77
2022-10-31T18:50:50.341Z,9.50
2022-10-31T18:53:17.883Z,9.02
2022-10-31T18:55:49.104Z,9.20
2022-10-31T18:58:17.875Z,8.57
2022-10-31T19:00:45.935Z,7.90
2022-10-31T19:03:14.560Z,8.20
2022-10-31T19:05:42.246Z,8.17
2022-10-31T19:08:10.114Z,7.57
2022-10-31T19:10:39.110Z,8.18
2022-10-31T19:13:08.403Z,9.27
2022-10-31T19:15:37.072Z,8.80
2022-10-31T19:18:05.513Z,8.65
2022-10-31T19:20:33.651Z,7.53
2022-10-31T19:23:01.873Z,8.52
2022-10-31T19:25:29.970Z,8.50
2022-10-31T19:27:57.691Z,8.50
2022-10-31T19:30:26.688Z,8.00
2022-10-31T19:32:55.159Z,7.75
2022-10-31T19:35:22.840Z,7.88
2022-10-31T19:37:50.528Z,7.45
2022-10-31T19:40:18.365Z,7.83
2022-10-31T19:42:46.212Z,7.55
2022-10-31T19:45:15.865Z,7.47
2022-10-31T19:47:44.782Z,7.50
2022-10-31T19:50:12.406Z,6.93
2022-10-31T19:52:40.045Z,7.28
2022-10-31T19:55:08.303Z,6.93
2022-10-31T19:57:56.584Z,6.80
2022-10-31T20:00:24.887Z,6.87
2022-10-31T20:02:53.937Z,7.18
2022-10-31T20:05:22.505Z,7.60
2022-10-31T20:07:50.141Z,7.57
2022-10-31T20:10:18.129Z,8.10
2022-10-31T20:12:45.873Z,7.50
2022-10-31T20:15:13.579Z,8.40
2022-10-31T20:17:41.229Z,8.32
2022-10-31T20:20:11.569Z,8.35
2022-10-31T20:22:39.616Z,8.68
2022-10-31T20:25:08.128Z,8.60
2022-10-31T20:27:35.877Z,8.75
2022-10-31T20:30:03.642Z,9.00
2022-10-31T20:32:31.409Z,8.73
2022-10-31T20:34:59.201Z,9.18
2022-10-31T20:37:28.400Z,9.32
2022-10-31T20:39:56.728Z,9.30
2022-10-31T20:42:24.760Z,9.52
2022-10-31T20:44:52.477Z,9.98
2022-10-31T20:47:23.367Z,10.50
2022-10-31T20:49:53.595Z,9.43
2022-10-31T20:52:21.445Z,9.85
2022-10-31T20:54:50.484Z,9.40
2022-10-31T20:57:18.188Z,10.18
2022-10-31T20:59:45.905Z,10.30
2022-10-31T21:02:13.881Z,10.38
2022-10-31T21:04:41.732Z,10.43
2022-10-31T21:07:09.759Z,10.48
2022-10-31T21:09:37.545Z,10.25
2022-10-31T21:12:06.915Z,10.68
2022-10-31T21:14:35.277Z,10.80
2022-10-31T21:17:02.894Z,11.63
2022-10-31T21:19:30.435Z,11.32
2022-10-31T21:21:58.052Z,11.20
2022-10-31T21:24:28.001Z,11.60
2022-10-31T21:26:56.058Z,12.30
2022-10-31T21:29:25.458Z,11.38
2022-10-31T21:31:53.194Z,11.90
2022-10-31T21:34:20.740Z,10.90
2022-10-31T21:36:48.353Z,11.50
2022-10-31T21:39:15.904Z,11.75
2022-10-31T21:41:44.342Z,12.10
2022-10-31T21:44:11.909Z,12.05
2022-10-31T21:46:40.787Z,11.68
2022-10-31T21:49:08.369Z,11.52
2022-10-31T21:51:37.067Z,11.23
2022-10-31T21:54:23.317Z,11.57
2022-10-31T21:56:51.595Z,11.35
2022-10-31T21:59:19.259Z,11.80
2022-10-31T22:01:48.279Z,11.80
2022-10-31T22:04:15.992Z,11.97
2022-10-31T22:06:44.135Z,12.23
2022-10-31T22:09:13.747Z,12.02
2022-10-31T22:11:42.374Z,11.85
2022-10-31T22:14:13.357Z,12.20
2022-10-31T22:16:41.318Z,11.85
2022-10-31T22:19:12.366Z,12.25
2022-10-31T22:21:41.831Z,12.77
2022-10-31T22:24:10.844Z,11.73
2022-10-31T22:26:39.664Z,11.70
2022-10-31T22:29:11.453Z,10.80
2022-10-31T22:31:40.704Z,10.30
2022-10-31T22:34:09.708Z,10.60
2022-10-31T22:36:38.686Z,10.15
2022-10-31T22:39:07.328Z,9.75
2022-10-31T22:41:36.915Z,9.48
2022-10-31T22:44:06.129Z,9.80
2022-10-31T22:46:35.822Z,9.02
2022-10-31T22:49:05.487Z,9.30
2022-10-31T22:51:36.174Z,9.77
2022-10-31T22:54:04.339Z,9.20
2022-10-31T22:56:34.764Z,8.68
2022-10-31T22:59:03.215Z,9.13
2022-10-31T23:01:33.131Z,8.40
2022-10-31T23:04:01.685Z,8.65
2022-10-31T23:06:31.914Z,8.83
2022-10-31T23:09:03.184Z,8.17
2022-10-31T23:11:34.306Z,8.07
2022-10-31T23:14:13.777Z,7.93
2022-10-31T23:16:46.676Z,8.30
2022-10-31T23:19:18.038Z,7.80
2022-10-31T23:21:57.280Z,8.00
2022-10-31T23:24:29.381Z,7.78
2022-10-31T23:27:10.466Z,7.90
2022-10-31T23:29:44.270Z,7.90
2022-10-31T23:32:15.319Z,7.55
2022-10-31T23:34:42.908Z,7.28
2022-10-31T23:37:10.847Z,8.02
2022-10-31T23:39:39.851Z,7.77
2022-10-31T23:42:07.865Z,8.00
2022-10-31T23:44:35.464Z,8.07
2022-10-31T23:47:03.372Z,7.72
2022-10-31T23:49:31.000Z,8.00
2022-10-31T23:51:58.896Z,7.60
2022-10-31T23:54:27.897Z,7.70
2022-10-31T23:56:58.006Z,7.97
2022-10-31T23:59:25.900Z,8.00
